Airfield :
LOGIN :

Register | Disclaimer

   EN    FR    IT 

 










Legend :    VFR   Marginal VFR   IFR   Intensive IFR   Very Intensive IFR
Visi :
Ceiling :
>= 8 km
>= 3000ft
5 to 8 km
1000 to 3000 ft
1500m to 5 km
500 to 1000 ft
800 to 1500m
200 to 500 ft
< 800m
< 200 ft
Symbols :   Thunderstorms  Fog  Heavy snow  Heavy precipitations  Wind > 20 kt
SIGMETs :     Misc.  Thunderstorms  Icing  Turbulence  Mountain Waves  Volcanic Ashes







- Airport Elevation : 1325 ft
- IATA code : EBU
- Download approach charts


LFMH - St-Etienne Boutheon

CURRENT METAR :
  • 230700Z AUTO VRB01KT 0900 0550 R17/1000D FG BKN003 01/01 Q1030 TEMPO 0200 FZFG VV///

EXPIRED METARs :
  • 230630Z AUTO 00000KT 3700 BR BKN003 BKN008 02/01 Q1030 TEMPO 0200 FZFG VV///
  • 230600Z AUTO VRB01KT 4800 BR BKN004 01/01 Q1030 TEMPO 0200 FZFG VV///
  • 230530Z AUTO 00000KT 5000 BR OVC005 02/01 Q1030 TEMPO 0200 FZFG VV///
  • 230500Z AUTO VRB01KT 1800 BR BKN006 OVC011 M01/M01 Q1030 TEMPO 0200 FZFG VV///
  • 230430Z AUTO VRB02KT 0500 0400 R17/1300U FZFG BKN006 M01/M01 Q1030 TEMPO 0200 FZFG VV///

TAF AMD TAF LFMH
Valid from the 23 at 04:00 until the 24 at 03:00 UTC


230413Z 2304/2403 VRB02KT 6000 NSC
PROB40
TEMPO 2304/2309 0200 FZFG VV///
BECMG 2309/2312 CAVOK
PROB40
TEMPO 2400/2403 3000 BR
ATIS : +33 4 77 36 17 51
No reported NOTAMs for that airfield.



MET'MAP, your aeronautical weather chart ! - Copyright ORBIFLY December 2007 - Disclaimer

ORBIFLY MET'MAP TEAM :

Programming & Development : Alexandra Zaïnal
Concept & Development : Baudouin d'Aumeries
Co-Development & Prog : Marc-Olivier Méhu
Technical & hardware support : Manuel Goepfert

Contact : metmap@orbifly.com




SOURCES & CREDITS :

   NOAA